createdAt,value
2023-02-11T00:02:01.609Z,379.35
2023-02-11T00:05:04.293Z,406.27
2023-02-11T00:08:06.504Z,123.75
2023-02-11T00:11:14.912Z,163.98
2023-02-11T00:14:17.006Z,84.93
2023-02-11T00:17:19.144Z,70.72
2023-02-11T00:20:21.354Z,71.43
2023-02-11T00:23:23.422Z,68.50
2023-02-11T00:26:28.304Z,70.43
2023-02-11T00:29:30.555Z,66.65
2023-02-11T00:32:32.839Z,67.28
2023-02-11T00:35:37.856Z,73.85
2023-02-11T00:38:40.752Z,64.20
2023-02-11T00:41:42.809Z,64.78
2023-02-11T00:44:44.968Z,69.47
2023-02-11T00:47:47.293Z,72.68
2023-02-11T00:50:49.403Z,62.97
2023-02-11T00:53:51.881Z,66.95
2023-02-11T00:56:54.023Z,67.47
2023-02-11T00:59:56.163Z,67.28
2023-02-11T01:02:58.282Z,65.72
2023-02-11T01:06:00.688Z,60.63
2023-02-11T01:09:02.826Z,59.45
2023-02-11T01:12:05.145Z,65.22
2023-02-11T01:15:09.012Z,63.42
2023-02-11T01:18:11.364Z,65.75
2023-02-11T01:21:13.753Z,69.05
2023-02-11T01:24:15.794Z,58.22
2023-02-11T01:27:17.954Z,71.07
2023-02-11T01:30:20.194Z,70.75
2023-02-11T01:33:23.353Z,63.85
2023-02-11T01:36:25.590Z,65.65
2023-02-11T01:39:27.894Z,62.42
2023-02-11T01:42:30.519Z,65.82
2023-02-11T01:46:12.466Z,66.80
2023-02-11T01:49:38.720Z,65.00
2023-02-11T01:52:42.641Z,75.75
2023-02-11T01:56:03.459Z,69.15
2023-02-11T01:59:11.065Z,66.75
2023-02-11T02:02:15.128Z,63.03
2023-02-11T02:05:23.576Z,63.08
2023-02-11T02:08:43.888Z,64.00
2023-02-11T02:11:46.258Z,65.60
2023-02-11T02:14:48.431Z,73.75
2023-02-11T02:18:15.978Z,67.63
2023-02-11T02:21:41.104Z,69.70
2023-02-11T02:25:05.095Z,67.50
2023-02-11T02:28:37.729Z,63.88
2023-02-11T02:32:10.444Z,63.83
2023-02-11T02:35:29.578Z,68.60
2023-02-11T02:38:40.828Z,64.53
2023-02-11T02:41:44.139Z,66.78
2023-02-11T02:44:53.354Z,67.25
2023-02-11T02:47:55.711Z,69.80
2023-02-11T02:51:03.911Z,66.57
2023-02-11T02:54:24.458Z,67.05
2023-02-11T02:57:47.262Z,70.93
2023-02-11T03:01:04.823Z,69.35
2023-02-11T03:04:27.180Z,67.13
2023-02-11T03:07:45.954Z,71.85
2023-02-11T03:10:51.556Z,63.47
2023-02-11T03:13:55.936Z,63.08
2023-02-11T03:17:01.375Z,71.63
2023-02-11T03:20:06.945Z,70.95
2023-02-11T03:23:17.046Z,69.15
2023-02-11T03:26:28.464Z,64.55
2023-02-11T03:30:10.409Z,63.75
2023-02-11T03:33:50.244Z,68.25
2023-02-11T03:37:01.822Z,63.08
2023-02-11T03:40:10.095Z,65.22
2023-02-11T03:43:25.214Z,63.97
2023-02-11T03:46:37.496Z,72.88
2023-02-11T03:49:40.601Z,71.70
2023-02-11T03:52:43.358Z,75.40
2023-02-11T03:55:47.102Z,70.85
2023-02-11T03:58:49.890Z,72.50
2023-02-11T04:01:52.578Z,72.50
2023-02-11T04:04:54.914Z,73.65
2023-02-11T04:07:57.067Z,69.53
2023-02-11T04:10:59.432Z,71.45
2023-02-11T04:14:01.667Z,82.60
2023-02-11T04:17:04.367Z,75.00
2023-02-11T04:20:07.735Z,70.60
2023-02-11T04:23:10.277Z,68.53
2023-02-11T04:26:12.386Z,72.07
2023-02-11T04:29:14.940Z,68.82
2023-02-11T04:32:17.335Z,75.82
2023-02-11T04:35:19.555Z,72.10
2023-02-11T04:38:24.114Z,74.10
2023-02-11T04:41:26.287Z,71.38
2023-02-11T04:44:28.456Z,76.75
2023-02-11T04:47:30.737Z,78.35
2023-02-11T04:50:32.840Z,75.32
2023-02-11T04:53:35.018Z,72.93
2023-02-11T04:56:37.365Z,75.40
2023-02-11T04:59:40.721Z,77.78
2023-02-11T05:02:42.998Z,83.78
2023-02-11T05:05:45.181Z,76.05
2023-02-11T05:08:47.427Z,73.22
2023-02-11T05:11:50.204Z,80.78
2023-02-11T05:14:52.340Z,75.68
2023-02-11T05:17:54.604Z,75.63
2023-02-11T05:20:56.957Z,73.32
2023-02-11T05:23:59.235Z,74.85
2023-02-11T05:27:02.044Z,76.40
2023-02-11T05:30:05.581Z,75.05
2023-02-11T05:33:07.655Z,80.30
2023-02-11T05:36:12.336Z,80.32
2023-02-11T05:39:14.573Z,74.60
2023-02-11T05:42:16.777Z,78.97
2023-02-11T05:45:18.929Z,82.57
2023-02-11T05:48:21.212Z,84.65
2023-02-11T05:51:25.305Z,78.68
2023-02-11T05:54:27.497Z,78.57
2023-02-11T05:57:29.677Z,80.78
2023-02-11T06:00:31.769Z,81.18
2023-02-11T06:03:33.948Z,75.35
2023-02-11T06:06:36.151Z,73.70
2023-02-11T06:09:38.291Z,78.15
2023-02-11T06:12:40.412Z,88.28
2023-02-11T06:15:42.477Z,82.40
2023-02-11T06:18:44.638Z,89.95
2023-02-11T06:21:46.709Z,82.63
2023-02-11T06:25:01.002Z,81.85
2023-02-11T06:28:04.255Z,79.60
2023-02-11T06:31:07.659Z,78.93
2023-02-11T06:34:10.492Z,80.88
2023-02-11T06:37:12.682Z,78.97
2023-02-11T06:40:14.832Z,77.32
2023-02-11T06:43:17.056Z,79.45
2023-02-11T06:46:19.478Z,83.95
2023-02-11T06:49:21.592Z,107.22
2023-02-11T06:52:23.610Z,97.97
2023-02-11T06:55:26.062Z,95.43
2023-02-11T06:58:28.165Z,85.93
2023-02-11T07:01:30.449Z,90.60
2023-02-11T07:04:32.684Z,93.00
2023-02-11T07:07:34.814Z,108.50
2023-02-11T07:10:37.149Z,107.90
2023-02-11T07:13:39.576Z,105.80
2023-02-11T07:16:41.750Z,105.72
2023-02-11T07:19:44.069Z,123.65
2023-02-11T07:22:46.413Z,122.63
2023-02-11T07:25:48.703Z,130.48
2023-02-11T07:28:52.456Z,133.07
2023-02-11T07:31:54.812Z,109.78
2023-02-11T07:34:57.676Z,113.75
2023-02-11T07:37:59.901Z,113.57
2023-02-11T07:41:06.928Z,121.97
2023-02-11T07:44:09.294Z,128.63
2023-02-11T07:47:11.334Z,133.15
2023-02-11T07:50:13.733Z,141.60
2023-02-11T07:53:16.230Z,138.05
2023-02-11T07:56:19.805Z,143.60
2023-02-11T07:59:22.368Z,141.65
2023-02-11T08:02:24.657Z,149.40
2023-02-11T08:05:27.070Z,150.70
2023-02-11T08:08:29.147Z,145.52
2023-02-11T08:11:31.722Z,142.75
2023-02-11T08:14:33.870Z,149.48
2023-02-11T08:17:37.042Z,140.82
2023-02-11T08:20:39.305Z,127.50
2023-02-11T08:23:43.522Z,128.63
2023-02-11T08:26:45.832Z,136.30
2023-02-11T08:29:47.986Z,132.45
2023-02-11T08:32:50.231Z,132.32
2023-02-11T08:35:52.306Z,133.65
2023-02-11T08:39:08.603Z,126.00
2023-02-11T08:42:18.518Z,117.70
2023-02-11T08:45:20.646Z,123.45
2023-02-11T08:48:23.017Z,116.68
2023-02-11T08:51:27.929Z,115.05
2023-02-11T08:54:33.329Z,121.47
2023-02-11T08:57:35.492Z,112.57
2023-02-11T09:00:37.560Z,151.98
2023-02-11T09:03:40.436Z,122.68
2023-02-11T09:06:42.612Z,123.88
2023-02-11T09:09:44.671Z,114.93
2023-02-11T09:12:46.837Z,108.00
2023-02-11T09:15:49.002Z,118.20
2023-02-11T09:18:52.118Z,105.95
2023-02-11T09:21:54.335Z,102.95
2023-02-11T09:24:56.809Z,107.45
2023-02-11T09:27:58.874Z,106.60
2023-02-11T09:31:06.760Z,96.43
2023-02-11T09:34:11.128Z,96.03
2023-02-11T09:37:13.254Z,90.90
2023-02-11T09:40:16.350Z,93.15
2023-02-11T09:43:22.368Z,95.95
2023-02-11T09:46:27.320Z,82.55
2023-02-11T09:49:48.418Z,96.57
2023-02-11T09:52:59.948Z,93.88
2023-02-11T09:56:10.586Z,89.35
2023-02-11T09:59:17.668Z,87.32
2023-02-11T10:02:49.487Z,87.30
2023-02-11T10:05:51.457Z,84.65
2023-02-11T10:09:04.798Z,90.63
2023-02-11T10:12:16.191Z,88.38
2023-02-11T10:15:24.193Z,88.75
2023-02-11T10:18:35.116Z,136.27
2023-02-11T10:22:03.896Z,86.28
2023-02-11T10:25:25.709Z,103.20
2023-02-11T10:28:34.030Z,93.93
2023-02-11T10:31:39.943Z,85.30
2023-02-11T10:34:42.688Z,73.80
2023-02-11T10:37:45.327Z,75.25
2023-02-11T10:40:47.457Z,79.63
2023-02-11T10:43:50.519Z,81.50
2023-02-11T10:46:54.530Z,88.22
2023-02-11T10:50:03.323Z,78.70
2023-02-11T10:53:21.050Z,66.57
2023-02-11T10:56:27.354Z,73.65
2023-02-11T10:59:40.391Z,77.50
2023-02-11T11:02:44.594Z,89.38
2023-02-11T11:05:51.589Z,84.60
2023-02-11T11:08:53.684Z,96.07
2023-02-11T11:11:55.795Z,78.95
2023-02-11T11:15:13.673Z,103.88
2023-02-11T11:18:23.685Z,74.45
2023-02-11T11:21:34.597Z,78.03
2023-02-11T11:24:57.128Z,69.75
2023-02-11T11:28:01.129Z,75.63
2023-02-11T11:31:03.721Z,78.22
2023-02-11T11:34:42.121Z,73.80
2023-02-11T11:37:45.785Z,71.60
2023-02-11T11:41:18.082Z,73.45
2023-02-11T11:44:22.978Z,71.00
2023-02-11T11:47:43.696Z,71.30
2023-02-11T11:51:12.734Z,68.55
2023-02-11T11:54:19.605Z,74.28
2023-02-11T11:57:28.743Z,72.20
2023-02-11T12:04:08.662Z,75.47
2023-02-11T12:07:25.799Z,71.72
2023-02-11T12:10:39.397Z,74.03
2023-02-11T12:14:08.120Z,68.28
2023-02-11T12:17:28.529Z,71.90
2023-02-11T12:23:53.404Z,79.38
2023-02-11T12:26:58.701Z,79.45
2023-02-11T12:30:23.108Z,75.13
2023-02-11T12:33:54.883Z,69.93
2023-02-11T12:37:02.824Z,72.28
2023-02-11T12:40:34.777Z,77.88
2023-02-11T12:43:39.636Z,73.45
2023-02-11T12:47:11.913Z,68.05
2023-02-11T12:50:26.448Z,66.65
2023-02-11T12:53:49.645Z,69.40
2023-02-11T12:56:51.888Z,63.13
2023-02-11T13:00:00.485Z,64.05
2023-02-11T13:03:43.095Z,67.15
2023-02-11T13:06:51.903Z,62.00
2023-02-11T13:10:28.325Z,69.75
2023-02-11T13:13:48.736Z,52.22
2023-02-11T13:16:51.669Z,61.13
2023-02-11T13:20:01.135Z,75.07
2023-02-11T13:23:27.819Z,71.45
2023-02-11T13:26:50.611Z,71.40
2023-02-11T13:30:24.373Z,83.40
2023-02-11T13:33:37.644Z,67.22
2023-02-11T13:36:40.217Z,70.95
2023-02-11T13:39:42.813Z,73.35
2023-02-11T13:42:57.632Z,68.68
2023-02-11T13:46:11.679Z,60.22
2023-02-11T13:49:42.221Z,59.78
2023-02-11T13:52:44.978Z,59.65
2023-02-11T13:55:53.177Z,59.20
2023-02-11T13:58:55.915Z,60.95
2023-02-11T14:02:24.623Z,63.80
2023-02-11T14:05:48.968Z,64.25
2023-02-11T14:09:10.151Z,63.35
2023-02-11T14:12:32.120Z,57.63
2023-02-11T14:15:42.565Z,79.03
2023-02-11T14:18:45.050Z,64.65
2023-02-11T14:21:48.008Z,64.82
2023-02-11T14:25:02.219Z,60.58
2023-02-11T14:28:26.864Z,57.08
2023-02-11T14:31:44.257Z,58.95
2023-02-11T14:35:15.736Z,65.47
2023-02-11T14:38:48.626Z,57.05
2023-02-11T14:41:51.553Z,65.05
2023-02-11T14:44:59.491Z,99.13
2023-02-11T14:48:13.835Z,54.42
2023-02-11T14:51:27.079Z,67.93
2023-02-11T14:54:31.402Z,67.72
2023-02-11T14:57:35.638Z,63.28
2023-02-11T15:00:52.437Z,86.57
2023-02-11T15:03:59.877Z,69.65
2023-02-11T15:07:08.601Z,69.57
2023-02-11T15:10:27.831Z,78.60
2023-02-11T15:13:33.175Z,99.88
2023-02-11T15:16:44.707Z,75.22
2023-02-11T15:19:51.231Z,66.07
2023-02-11T15:23:03.743Z,87.70
2023-02-11T15:26:14.824Z,110.45
2023-02-11T15:29:17.743Z,143.50
2023-02-11T15:32:25.199Z,76.07
2023-02-11T15:35:37.425Z,68.20
2023-02-11T15:38:41.251Z,134.02
2023-02-11T15:41:45.007Z,93.32
2023-02-11T15:44:56.763Z,76.65
2023-02-11T15:48:09.832Z,70.38
2023-02-11T15:51:35.497Z,86.30
2023-02-11T15:54:38.612Z,104.05
2023-02-11T15:57:54.840Z,101.18
2023-02-11T16:01:00.568Z,121.47
2023-02-11T16:04:05.666Z,92.70
2023-02-11T16:07:39.613Z,66.35
2023-02-11T16:10:58.817Z,109.97
2023-02-11T16:14:19.038Z,67.23
2023-02-11T16:17:26.832Z,69.30
2023-02-11T16:20:30.143Z,67.72
2023-02-11T16:23:38.561Z,72.32
2023-02-11T16:26:47.529Z,69.00
2023-02-11T16:29:52.004Z,65.75
2023-02-11T16:32:55.378Z,81.85
2023-02-11T16:36:02.596Z,89.50
2023-02-11T16:39:05.921Z,78.15
2023-02-11T16:42:10.950Z,69.85
2023-02-11T16:45:16.170Z,67.78
2023-02-11T16:48:21.123Z,64.82
2023-02-11T16:51:25.004Z,71.25
2023-02-11T16:54:30.028Z,71.63
2023-02-11T16:57:33.720Z,72.60
2023-02-11T17:00:37.215Z,79.90
2023-02-11T17:03:44.081Z,75.63
2023-02-11T17:06:48.436Z,73.30
2023-02-11T17:09:52.589Z,68.97
2023-02-11T17:12:55.788Z,76.80
2023-02-11T17:15:59.477Z,72.15
2023-02-11T17:19:05.239Z,66.85
2023-02-11T17:22:10.773Z,69.65
2023-02-11T17:25:18.491Z,74.00
2023-02-11T17:28:23.180Z,80.25
2023-02-11T17:31:26.775Z,74.15
2023-02-11T17:34:30.235Z,68.25
2023-02-11T17:37:33.940Z,66.28
2023-02-11T17:40:38.628Z,70.40
2023-02-11T17:43:42.274Z,65.38
2023-02-11T17:46:46.513Z,65.47
2023-02-11T17:49:50.260Z,68.53
2023-02-11T17:52:54.943Z,71.03
2023-02-11T17:55:59.283Z,69.30
2023-02-11T17:59:03.555Z,66.70
2023-02-11T18:02:07.539Z,72.25
2023-02-11T18:05:11.007Z,78.88
2023-02-11T18:08:14.155Z,63.55
2023-02-11T18:11:17.674Z,91.25
2023-02-11T18:14:23.421Z,90.15
2023-02-11T18:17:28.203Z,78.78
2023-02-11T18:20:35.166Z,86.55
2023-02-11T18:23:38.551Z,87.05
2023-02-11T18:26:42.149Z,90.43
2023-02-11T18:29:46.089Z,62.80
2023-02-11T18:32:55.384Z,60.38
2023-02-11T18:36:00.177Z,72.53
2023-02-11T18:39:07.462Z,73.35
2023-02-11T18:42:10.976Z,69.00
2023-02-11T18:45:15.986Z,65.15
2023-02-11T18:48:20.885Z,64.28
2023-02-11T18:51:24.770Z,58.78
2023-02-11T18:54:28.134Z,58.55
2023-02-11T19:00:51.270Z,61.05
2023-02-11T19:03:58.452Z,64.32
2023-02-11T19:07:04.355Z,59.25
2023-02-11T19:10:08.367Z,61.72
2023-02-11T19:13:11.967Z,61.72
2023-02-11T19:16:20.250Z,61.97
2023-02-11T19:19:28.056Z,69.88
2023-02-11T19:22:32.719Z,70.63
2023-02-11T19:25:38.724Z,68.30
2023-02-11T19:28:44.657Z,197.93
2023-02-11T19:31:48.085Z,98.47
2023-02-11T19:34:52.739Z,78.68
2023-02-11T19:37:55.341Z,75.70
2023-02-11T19:40:59.297Z,71.68
2023-02-11T19:44:03.379Z,71.68
2023-02-11T19:47:07.523Z,80.65
2023-02-11T19:50:12.028Z,103.63
2023-02-11T19:53:15.379Z,91.82
2023-02-11T19:56:21.987Z,98.05
2023-02-11T19:59:25.809Z,110.50
2023-02-11T20:02:30.791Z,90.05
2023-02-11T20:05:40.091Z,68.05
2023-02-11T20:08:44.760Z,90.70
2023-02-11T20:11:49.234Z,80.05
2023-02-11T20:14:52.417Z,70.25
2023-02-11T20:17:57.437Z,71.28
2023-02-11T20:21:06.509Z,70.68
2023-02-11T20:24:10.106Z,74.70
2023-02-11T20:27:14.197Z,93.32
2023-02-11T20:30:22.566Z,79.28
2023-02-11T20:33:26.653Z,75.10
2023-02-11T20:36:39.312Z,72.05
2023-02-11T20:39:45.608Z,69.82
2023-02-11T20:42:53.225Z,73.18
2023-02-11T20:46:04.223Z,71.25
2023-02-11T20:49:09.206Z,72.07
2023-02-11T20:52:14.455Z,69.18
2023-02-11T20:55:17.891Z,80.28
2023-02-11T20:58:24.796Z,79.88
2023-02-11T21:01:34.498Z,71.43
2023-02-11T21:04:42.509Z,75.55
2023-02-11T21:07:45.964Z,73.22
2023-02-11T21:10:49.697Z,67.22
2023-02-11T21:13:53.638Z,83.88
2023-02-11T21:17:00.506Z,73.68
2023-02-11T21:20:04.321Z,70.05
2023-02-11T21:23:08.529Z,77.63
2023-02-11T21:26:12.452Z,64.75
2023-02-11T21:29:16.305Z,69.85
2023-02-11T21:32:20.017Z,70.15
2023-02-11T21:35:23.661Z,71.82
2023-02-11T21:38:30.803Z,65.10
2023-02-11T21:41:35.381Z,65.28
2023-02-11T21:44:38.241Z,78.25
2023-02-11T21:47:40.831Z,121.40
2023-02-11T21:50:46.294Z,70.18
2023-02-11T21:53:58.564Z,63.47
2023-02-11T21:57:03.589Z,63.67
2023-02-11T22:00:07.877Z,66.65
2023-02-11T22:03:12.568Z,63.10
2023-02-11T22:06:19.330Z,73.55
2023-02-11T22:09:22.143Z,67.00
2023-02-11T22:12:25.268Z,87.15
2023-02-11T22:15:27.962Z,72.63
2023-02-11T22:18:30.628Z,87.30
2023-02-11T22:21:33.196Z,75.55
2023-02-11T22:24:38.965Z,68.95
2023-02-11T22:27:41.449Z,74.85
2023-02-11T22:30:43.808Z,63.45
2023-02-11T22:33:46.445Z,75.15
2023-02-11T22:36:53.633Z,144.73
2023-02-11T22:39:55.764Z,158.05
2023-02-11T22:42:57.986Z,74.78
2023-02-11T22:46:01.298Z,88.75
2023-02-11T22:49:04.974Z,118.80
2023-02-11T22:52:07.130Z,65.13
2023-02-11T22:55:09.776Z,148.82
2023-02-11T22:58:11.947Z,106.22
2023-02-11T23:01:14.894Z,76.90
2023-02-11T23:04:19.205Z,70.32
2023-02-11T23:07:21.420Z,89.90
2023-02-11T23:10:23.834Z,86.65
2023-02-11T23:13:25.884Z,88.97
2023-02-11T23:16:34.092Z,104.10
2023-02-11T23:19:36.549Z,112.90
2023-02-11T23:22:38.669Z,71.53
2023-02-11T23:25:44.264Z,87.50
2023-02-11T23:28:46.872Z,76.57
2023-02-11T23:31:50.128Z,70.78
2023-02-11T23:34:52.824Z,77.72
2023-02-11T23:37:55.113Z,81.60
2023-02-11T23:40:57.284Z,75.28
2023-02-11T23:43:59.670Z,84.43
2023-02-11T23:47:01.769Z,94.95
2023-02-11T23:50:04.536Z,106.93
2023-02-11T23:53:06.777Z,84.80
2023-02-11T23:56:16.137Z,88.38
2023-02-11T23:59:18.322Z,96.40
